FAB weather

Farnborough Airport
Farnborough, England, United Kingdom

Public forecast

Using degrees Celsius for public forecast. Weather courtesy of forecast.io.

Current aviation weather report (METAR) for Farnborough Airport

Retrieved 2019/10/22 12:20 UTC (0 seconds ago):

EGLF 221220Z AUTO 25004KT 210V290 9999 NCD 14/04 Q1023

Aviation forecast (TAF) for Farnborough Airport

Forecast is more than 12 hours old.

Retrieved 2016/04/18 18:00 UTC (4 years ago):

TAF EGLF 181658Z 1818/1821 26008KT 9999 BKN040